AST,Max TemperatureF,Mean TemperatureF,Min TemperatureF,Max Dew PointF,MeanDew PointF,Min DewpointF,Max Humidity, Mean Humidity, Min Humidity, Max Sea Level PressureIn, Mean Sea Level PressureIn, Min Sea Level PressureIn, Max VisibilityMiles, Mean VisibilityMiles, Min VisibilityMiles, Max Wind SpeedMPH, Mean Wind SpeedMPH, Max Gust SpeedMPH,PrecipitationIn, CloudCover, Events, WindDirDegrees
2013-2-1,34,24,15,32,11,1,81,50,30,29.81,29.44,29.11,15,15,15,24,17,34,0.00,3,Snow,250
2013-2-2,14,10,6,2,-1,-4,72,58,35,30.21,30.01,29.81,15,15,15,15,10,22,0.00,2,,270
2013-2-3,28,20,12,27,16,0,100,84,53,30.24,30.00,29.60,15,6,0,17,8,23,0.12,8,Snow,64
2013-2-4,28,22,15,28,20,5,100,87,55,29.54,29.23,29.04,15,3,0,28,14,45,0.28,7,Rain-Snow,297
2013-2-5,14,10,5,5,-4,-9,67,53,27,30.08,29.79,29.45,15,15,15,26,18,37,0.35,1,Snow,249
2013-2-6,19,6,-8,16,-1,-13,86,64,34,30.10,30.03,29.97,15,14,2,9,3,,0.01,6,Snow,171
2013-2-7,16,7,-2,16,-5,-17,93,61,34,30.50,30.20,29.98,15,13,2,24,12,34,0.00,4,Snow,279
2013-2-8,9,2,-6,1,-6,-13,79,67,38,30.63,30.56,30.45,15,15,15,10,7,,0.00,4,,301
2013-2-9,21,13,5,20,14,1,93,88,64,30.40,29.90,29.67,15,2,0,39,25,52,0.24,8,Rain-Snow,38
2013-2-10,22,20,19,21,17,10,100,84,51,30.14,29.87,29.67,15,4,0,31,24,45,0.16,7,Snow,345
2013-2-11,26,18,10,25,12,5,100,69,38,30.24,30.11,29.86,15,13,1,15,9,18,0.08,3,Snow,206
2013-2-12,37,30,24,37,32,25,100,96,86,29.81,29.41,29.24,15,6,0,22,14,31,0.24,8,Fog-Rain-Snow,209
2013-2-13,32,29,26,28,27,25,100,91,79,29.74,29.63,29.44,15,13,3,17,10,28,0.00,8,Snow,284
2013-2-14,29,28,26,28,26,23,100,91,76,29.94,29.80,29.71,15,15,15,9,4,,0.00,8,Snow,318
2013-2-15,35,28,20,27,21,19,95,78,44,30.07,30.03,29.96,15,15,12,10,7,,0.00,5,Snow,213
2013-2-16,41,36,30,33,30,26,93,80,63,30.04,29.97,29.83,15,15,15,18,9,,0.01,7,Snow,153
2013-2-17,38,35,32,38,33,30,100,99,92,29.83,29.09,28.28,15,7,2,25,13,36,0.63,8,Rain-Snow,52
2013-2-18,30,26,21,32,23,16,100,87,67,29.37,28.85,28.29,15,5,0,29,21,54,0.28,8,Rain-Snow,280
2013-2-19,30,25,20,21,17,14,80,72,56,30.00,29.77,29.39,15,15,15,22,17,33,0.00,3,Snow,274
2013-2-20,33,25,17,34,27,19,100,89,70,30.00,29.63,29.41,15,11,2,29,11,39,0.12,8,Rain-Snow,120
2013-2-21,32,31,30,34,30,28,100,97,93,29.78,29.55,29.41,15,8,1,28,8,41,0.04,8,Snow,319
2013-2-22,29,26,23,28,22,16,100,84,68,30.35,30.17,29.86,15,11,6,29,22,43,0.01,8,Snow,5
2013-2-23,26,18,6,16,13,5,92,70,53,30.34,30.30,30.24,15,15,15,12,7,18,0.00,5,Snow,347
2013-2-24,25,14,3,18,12,1,100,83,55,30.21,30.05,29.88,15,15,15,13,3,,0.00,5,,59
2013-2-25,30,22,15,23,19,15,100,81,62,30.21,30.04,29.88,15,15,15,20,11,26,0.00,5,Snow,6
2013-2-26,28,19,10,18,16,9,93,80,57,30.39,30.33,30.20,15,15,15,9,4,,0.00,4,,334
2013-2-27,33,18,4,19,12,5,100,79,44,30.38,30.25,30.12,15,13,0,9,2,,0.00,1,Fog,28
2013-2-28,39,27,15,27,20,14,100,85,36,30.11,29.95,29.75,15,10,0,14,7,,0.00,7,Fog,56